createdAt,value
2019-01-30T00:01:00.573Z,99.90
2019-01-30T00:03:28.900Z,99.90
2019-01-30T00:05:57.232Z,99.90
2019-01-30T00:08:25.640Z,99.90
2019-01-30T00:10:54.022Z,99.90
2019-01-30T00:13:22.380Z,99.90
2019-01-30T00:15:56.447Z,99.90
2019-01-30T00:18:20.693Z,99.90
2019-01-30T00:20:49.016Z,99.90
2019-01-30T00:23:17.399Z,99.90
2019-01-30T00:25:45.779Z,99.90
2019-01-30T00:28:14.113Z,99.90
2019-01-30T00:30:42.492Z,99.90
2019-01-30T00:33:10.790Z,99.90
2019-01-30T00:35:39.162Z,99.90
2019-01-30T00:38:07.495Z,99.90
2019-01-30T00:40:35.851Z,99.90
2019-01-30T00:43:04.149Z,99.90
2019-01-30T00:45:32.914Z,99.90
2019-01-30T00:48:01.287Z,99.90
2019-01-30T00:50:29.666Z,99.90
2019-01-30T00:52:57.988Z,99.90
2019-01-30T00:55:26.288Z,99.90
2019-01-30T00:57:54.616Z,99.90
2019-01-30T01:00:27.990Z,99.90
2019-01-30T01:02:56.368Z,99.90
2019-01-30T01:05:24.744Z,99.90
2019-01-30T01:07:53.139Z,99.90
2019-01-30T01:10:21.733Z,99.90
2019-01-30T01:12:50.369Z,99.90
2019-01-30T01:15:18.753Z,99.90
2019-01-30T01:17:47.037Z,99.90
2019-01-30T01:20:18.677Z,99.90
2019-01-30T01:22:47.086Z,99.90
2019-01-30T01:25:17.152Z,99.90
2019-01-30T01:27:45.522Z,99.90
2019-01-30T01:30:25.161Z,99.90
2019-01-30T01:32:52.047Z,99.90
2019-01-30T01:35:20.780Z,99.90
2019-01-30T01:37:49.179Z,99.90
2019-01-30T01:40:17.433Z,99.90
2019-01-30T01:42:46.030Z,99.90
2019-01-30T01:45:19.559Z,99.90
2019-01-30T01:47:47.937Z,99.90
2019-01-30T01:50:18.529Z,99.90
2019-01-30T01:52:46.934Z,99.90
2019-01-30T01:55:15.296Z,99.90
2019-01-30T01:57:43.552Z,99.90
2019-01-30T02:00:20.505Z,99.90
2019-01-30T02:02:48.789Z,99.90
2019-01-30T02:05:22.833Z,99.90
2019-01-30T02:07:51.603Z,99.90
2019-01-30T02:10:21.993Z,99.90
2019-01-30T02:12:50.443Z,99.90
2019-01-30T02:15:20.599Z,99.90
2019-01-30T02:17:48.964Z,99.90
2019-01-30T02:20:19.668Z,99.90
2019-01-30T02:22:48.066Z,99.90
2019-01-30T02:25:16.361Z,99.90
2019-01-30T02:27:44.771Z,99.90
2019-01-30T02:30:16.403Z,99.90
2019-01-30T02:32:44.970Z,99.90
2019-01-30T02:35:13.351Z,99.90
2019-01-30T02:37:41.635Z,99.90
2019-01-30T02:40:14.759Z,99.90
2019-01-30T02:42:43.113Z,99.90
2019-01-30T02:45:14.067Z,99.90
2019-01-30T02:47:42.484Z,99.90
2019-01-30T02:50:13.385Z,99.90
2019-01-30T02:52:41.850Z,99.90
2019-01-30T02:55:12.105Z,99.90
2019-01-30T02:57:40.476Z,99.90
2019-01-30T03:00:12.367Z,99.90
2019-01-30T03:02:40.661Z,99.90
2019-01-30T03:05:12.105Z,99.90
2019-01-30T03:07:59.891Z,99.90
2019-01-30T03:10:28.181Z,99.90
2019-01-30T03:12:56.517Z,99.90
2019-01-30T03:15:24.908Z,99.90
2019-01-30T03:17:53.297Z,99.90
2019-01-30T03:20:26.138Z,99.90
2019-01-30T03:22:54.574Z,99.90
2019-01-30T03:25:24.805Z,99.90
2019-01-30T03:27:53.232Z,99.90
2019-01-30T03:30:26.726Z,99.90
2019-01-30T03:32:55.410Z,99.90
2019-01-30T03:35:23.806Z,99.90
2019-01-30T03:37:52.274Z,99.90
2019-01-30T03:40:21.380Z,99.90
2019-01-30T03:42:49.751Z,99.90
2019-01-30T03:45:23.335Z,99.90
2019-01-30T03:47:51.715Z,99.90
2019-01-30T03:50:20.127Z,99.90
2019-01-30T03:52:48.504Z,99.90
2019-01-30T03:55:18.602Z,99.90
2019-01-30T03:57:46.983Z,99.90
2019-01-30T04:00:18.207Z,99.90
2019-01-30T04:02:46.572Z,99.90
2019-01-30T04:05:14.983Z,99.90
2019-01-30T04:07:43.355Z,99.90
2019-01-30T04:10:17.197Z,99.90
2019-01-30T04:12:45.648Z,99.90
2019-01-30T04:15:14.102Z,99.90
2019-01-30T04:17:42.495Z,99.90
2019-01-30T04:20:14.018Z,99.90
2019-01-30T04:22:42.364Z,99.90
2019-01-30T04:25:10.688Z,99.90
2019-01-30T04:27:39.424Z,99.90
2019-01-30T04:30:16.816Z,99.90
2019-01-30T04:32:45.201Z,99.90
2019-01-30T04:35:13.607Z,99.90
2019-01-30T04:37:41.986Z,99.90
2019-01-30T04:40:13.655Z,99.90
2019-01-30T04:42:41.982Z,99.90
2019-01-30T04:45:13.713Z,99.90
2019-01-30T04:47:42.089Z,99.90
2019-01-30T04:50:10.478Z,99.90
2019-01-30T04:52:38.853Z,99.90
2019-01-30T04:55:08.886Z,99.90
2019-01-30T04:57:58.306Z,99.90
2019-01-30T05:00:26.815Z,99.90
2019-01-30T05:02:55.488Z,99.90
2019-01-30T05:05:24.270Z,99.90
2019-01-30T05:07:52.655Z,99.90
2019-01-30T05:10:21.035Z,99.90
2019-01-30T05:12:49.495Z,99.90
2019-01-30T05:15:19.838Z,99.90
2019-01-30T05:17:48.222Z,99.90
2019-01-30T05:20:36.030Z,99.90
2019-01-30T05:23:04.802Z,99.90
2019-01-30T05:25:33.251Z,99.90
2019-01-30T05:28:01.627Z,99.90
2019-01-30T05:30:32.133Z,99.90
2019-01-30T05:33:00.490Z,99.90
2019-01-30T05:35:28.871Z,99.90
2019-01-30T05:37:57.264Z,99.90
2019-01-30T05:40:25.627Z,99.90
2019-01-30T05:42:54.012Z,99.90
2019-01-30T05:45:22.397Z,99.90
2019-01-30T05:47:51.117Z,99.90
2019-01-30T05:50:19.517Z,99.90
2019-01-30T05:52:47.912Z,99.90
2019-01-30T05:55:17.142Z,99.90
2019-01-30T05:57:45.521Z,99.90
2019-01-30T06:00:24.136Z,99.90
2019-01-30T06:02:52.510Z,99.90
2019-01-30T06:05:20.874Z,99.90
2019-01-30T06:07:49.251Z,99.90
2019-01-30T06:10:17.630Z,99.90
2019-01-30T06:12:45.972Z,99.90
2019-01-30T06:15:17.534Z,99.90
2019-01-30T06:17:45.917Z,99.90
2019-01-30T06:20:17.434Z,99.90
2019-01-30T06:22:46.095Z,99.90
2019-01-30T06:25:14.497Z,99.90
2019-01-30T06:27:42.879Z,99.90
2019-01-30T06:30:14.084Z,99.90
2019-01-30T06:32:42.461Z,99.90
2019-01-30T06:35:10.755Z,99.90
2019-01-30T06:37:40.022Z,99.90
2019-01-30T06:40:14.074Z,99.90
2019-01-30T06:42:42.474Z,99.90
2019-01-30T06:45:10.840Z,99.90
2019-01-30T06:47:39.210Z,99.90
2019-01-30T06:50:12.647Z,99.90
2019-01-30T06:52:41.045Z,99.90
2019-01-30T06:55:09.425Z,99.90
2019-01-30T06:57:37.729Z,99.90
2019-01-30T07:00:12.601Z,99.90
2019-01-30T07:02:40.905Z,99.90
2019-01-30T07:05:09.276Z,99.90
2019-01-30T07:07:37.752Z,99.90
2019-01-30T07:10:09.472Z,99.90
2019-01-30T07:12:37.860Z,99.90
2019-01-30T07:15:07.290Z,99.90
2019-01-30T07:17:35.684Z,99.90
2019-01-30T07:20:06.209Z,99.90
2019-01-30T07:22:34.544Z,99.90
2019-01-30T07:25:02.839Z,99.90
2019-01-30T07:27:31.523Z,99.90
2019-01-30T07:29:59.941Z,99.90
2019-01-30T07:32:28.337Z,99.90
2019-01-30T07:34:57.071Z,99.90
2019-01-30T07:37:25.478Z,99.90
2019-01-30T07:39:53.800Z,99.90
2019-01-30T07:42:22.124Z,99.90
2019-01-30T07:44:51.230Z,99.90
2019-01-30T07:47:19.678Z,99.90
2019-01-30T07:49:48.009Z,99.90
2019-01-30T07:52:16.377Z,99.90
2019-01-30T07:54:44.753Z,99.90
2019-01-30T07:57:13.147Z,99.90
2019-01-30T07:59:41.537Z,99.90
2019-01-30T08:02:09.946Z,99.90
2019-01-30T08:04:38.316Z,99.90
2019-01-30T08:07:06.964Z,99.90
2019-01-30T08:09:35.362Z,99.90
2019-01-30T08:12:03.735Z,99.90
2019-01-30T08:14:32.150Z,99.90
2019-01-30T08:17:00.538Z,99.90
2019-01-30T08:19:28.843Z,99.90
2019-01-30T08:21:57.247Z,99.90
2019-01-30T08:24:25.773Z,99.90
2019-01-30T08:26:54.907Z,99.90
2019-01-30T08:29:23.804Z,99.90
2019-01-30T08:31:52.528Z,99.90
2019-01-30T08:34:20.889Z,99.90
2019-01-30T08:36:49.264Z,99.90
2019-01-30T08:39:17.652Z,99.90
2019-01-30T08:41:46.023Z,99.90
2019-01-30T08:44:14.407Z,99.90
2019-01-30T08:46:42.701Z,99.90
2019-01-30T08:49:11.087Z,99.90
2019-01-30T08:51:39.479Z,99.90
2019-01-30T08:54:08.076Z,99.90
2019-01-30T08:56:39.090Z,99.90
2019-01-30T08:59:06.426Z,99.90
2019-01-30T09:01:34.751Z,99.90
2019-01-30T09:04:03.108Z,99.90
2019-01-30T09:06:31.794Z,99.90
2019-01-30T09:09:00.192Z,99.90
2019-01-30T09:11:28.847Z,99.90
2019-01-30T09:13:57.240Z,99.90
2019-01-30T09:16:25.622Z,99.90
2019-01-30T09:18:53.907Z,99.90
2019-01-30T09:21:22.247Z,99.90
2019-01-30T09:23:50.615Z,99.90
2019-01-30T09:26:18.991Z,99.90
2019-01-30T09:28:47.381Z,99.90
2019-01-30T09:31:16.055Z,99.90
2019-01-30T09:33:44.441Z,99.90
2019-01-30T09:36:12.848Z,99.90
2019-01-30T09:38:41.228Z,99.90
2019-01-30T09:41:09.637Z,99.90
2019-01-30T09:43:38.341Z,99.90
2019-01-30T09:46:06.735Z,99.90
2019-01-30T09:48:36.988Z,99.90
2019-01-30T09:51:05.152Z,99.90
2019-01-30T09:53:33.515Z,99.90
2019-01-30T09:56:01.878Z,99.90
2019-01-30T09:58:30.198Z,99.90
2019-01-30T10:00:58.562Z,99.90
2019-01-30T10:03:36.154Z,99.90
2019-01-30T10:05:56.884Z,99.90
2019-01-30T10:08:25.233Z,99.90
2019-01-30T10:10:53.607Z,99.90
2019-01-30T10:13:21.983Z,99.90
2019-01-30T10:15:50.385Z,99.90
2019-01-30T10:18:18.772Z,99.90
2019-01-30T10:20:47.904Z,99.90
2019-01-30T10:23:16.268Z,99.90
2019-01-30T10:25:44.900Z,99.90
2019-01-30T10:28:16.760Z,99.90
2019-01-30T10:30:45.530Z,99.90
2019-01-30T10:33:14.292Z,99.90
2019-01-30T10:35:42.657Z,99.90
2019-01-30T10:38:10.980Z,99.90
2019-01-30T10:40:39.727Z,99.90
2019-01-30T10:43:08.105Z,99.90
2019-01-30T10:45:38.326Z,99.90
2019-01-30T10:48:06.867Z,99.90
2019-01-30T10:50:35.174Z,99.90
2019-01-30T10:53:03.571Z,99.90
2019-01-30T10:55:33.988Z,99.90
2019-01-30T10:58:04.948Z,99.90
2019-01-30T11:00:36.559Z,99.90
2019-01-30T11:03:04.964Z,99.90
2019-01-30T11:05:33.747Z,99.90
2019-01-30T11:08:02.110Z,99.90
2019-01-30T11:10:30.778Z,99.90
2019-01-30T11:12:59.262Z,99.90
2019-01-30T11:15:29.379Z,99.90
2019-01-30T11:17:58.923Z,99.90
2019-01-30T11:20:28.231Z,99.90
2019-01-30T11:22:56.521Z,99.90
2019-01-30T11:25:33.691Z,99.90
2019-01-30T11:28:02.070Z,99.90
2019-01-30T11:30:30.455Z,99.90
2019-01-30T11:32:58.822Z,99.90
2019-01-30T11:35:27.229Z,99.90
2019-01-30T11:37:55.603Z,99.90
2019-01-30T11:40:24.766Z,99.90
2019-01-30T11:42:53.139Z,99.90
2019-01-30T11:45:33.535Z,99.90
2019-01-30T11:48:01.925Z,99.90
2019-01-30T11:50:30.325Z,99.90
2019-01-30T11:52:58.843Z,99.90
2019-01-30T11:55:27.226Z,99.90
2019-01-30T11:57:55.598Z,99.90
2019-01-30T12:00:42.526Z,99.90
2019-01-30T12:03:11.152Z,99.90
2019-01-30T12:05:39.655Z,99.90
2019-01-30T12:08:08.031Z,99.90
2019-01-30T12:10:36.466Z,99.90
2019-01-30T12:13:04.898Z,99.90
2019-01-30T12:15:33.374Z,99.90
2019-01-30T12:18:01.749Z,99.90
2019-01-30T12:20:30.056Z,99.90
2019-01-30T12:22:58.472Z,99.90
2019-01-30T12:25:26.822Z,99.90
2019-01-30T12:27:55.122Z,99.90
2019-01-30T12:30:27.534Z,99.90
2019-01-30T12:32:55.914Z,99.90
2019-01-30T12:35:24.343Z,99.90
2019-01-30T12:37:52.728Z,99.90
2019-01-30T12:40:25.503Z,99.90
2019-01-30T12:42:53.975Z,99.90
2019-01-30T12:45:31.209Z,98.70
2019-01-30T12:47:59.695Z,95.20
2019-01-30T12:50:28.222Z,91.90
2019-01-30T12:52:56.581Z,89.90
2019-01-30T12:55:24.972Z,85.50
2019-01-30T12:57:53.412Z,84.10
2019-01-30T13:00:30.846Z,84.70
2019-01-30T13:02:59.225Z,81.80
2019-01-30T13:05:27.629Z,81.30
2019-01-30T13:07:56.392Z,79.90
2019-01-30T13:10:24.664Z,81.50
2019-01-30T13:12:53.341Z,81.20
2019-01-30T13:15:24.343Z,82.20
2019-01-30T13:17:52.736Z,82.50
2019-01-30T13:20:22.186Z,81.70
2019-01-30T13:22:50.468Z,81.90
2019-01-30T13:25:24.106Z,78.80
2019-01-30T13:27:52.466Z,75.80
2019-01-30T13:30:23.703Z,75.40
2019-01-30T13:32:52.139Z,75.30
2019-01-30T13:35:20.497Z,75.00
2019-01-30T13:37:48.888Z,77.80
2019-01-30T13:40:29.205Z,73.80
2019-01-30T13:42:57.605Z,74.80
2019-01-30T13:45:26.910Z,74.30
2019-01-30T13:47:55.326Z,74.80
2019-01-30T13:50:25.704Z,74.50
2019-01-30T13:52:54.083Z,73.00
2019-01-30T13:55:22.509Z,73.50
2019-01-30T13:57:50.833Z,76.70
2019-01-30T14:00:22.211Z,76.70
2019-01-30T14:02:50.693Z,73.90
2019-01-30T14:05:19.384Z,72.70
2019-01-30T14:07:47.948Z,72.30
2019-01-30T14:10:16.462Z,68.10
2019-01-30T14:12:45.164Z,66.50
2019-01-30T14:15:21.646Z,68.90
2019-01-30T14:17:51.327Z,70.30
2019-01-30T14:20:19.672Z,71.40
2019-01-30T14:22:47.997Z,72.20
2019-01-30T14:25:17.202Z,68.50
2019-01-30T14:27:45.582Z,64.50
2019-01-30T14:30:31.263Z,67.80
2019-01-30T14:32:59.667Z,74.20
2019-01-30T14:35:29.459Z,78.80
2019-01-30T14:37:57.862Z,84.80
2019-01-30T14:40:26.341Z,87.30
2019-01-30T14:42:54.686Z,90.20
2019-01-30T14:45:23.070Z,91.30
2019-01-30T14:47:52.606Z,91.70
2019-01-30T14:50:23.167Z,92.50
2019-01-30T14:52:51.514Z,93.20
2019-01-30T14:55:19.983Z,94.00
2019-01-30T14:57:48.458Z,94.30
2019-01-30T15:00:33.135Z,94.20
2019-01-30T15:03:01.520Z,95.10
2019-01-30T15:05:30.335Z,95.00
2019-01-30T15:07:58.737Z,94.60
2019-01-30T15:10:28.875Z,95.20
2019-01-30T15:12:57.294Z,96.00
2019-01-30T15:15:30.793Z,95.20
2019-01-30T15:17:59.572Z,94.80
2019-01-30T15:20:29.844Z,95.60
2019-01-30T15:22:58.286Z,94.50
2019-01-30T15:25:26.674Z,95.10
2019-01-30T15:27:55.203Z,95.90
2019-01-30T15:30:40.834Z,95.90
2019-01-30T15:33:09.196Z,96.30
2019-01-30T15:35:37.567Z,97.20
2019-01-30T15:38:07.743Z,97.40
2019-01-30T15:40:36.110Z,97.90
2019-01-30T15:43:04.532Z,98.30
2019-01-30T15:45:32.842Z,98.50
2019-01-30T15:48:01.222Z,98.70
2019-01-30T15:50:38.151Z,99.00
2019-01-30T15:53:09.269Z,98.90
2019-01-30T15:55:37.607Z,99.30
2019-01-30T15:58:08.585Z,99.60
2019-01-30T16:00:45.762Z,99.80
2019-01-30T16:03:14.120Z,99.90
2019-01-30T16:05:45.166Z,99.90
2019-01-30T16:08:12.478Z,99.90
2019-01-30T16:10:40.772Z,99.80
2019-01-30T16:13:09.154Z,99.60
2019-01-30T16:15:46.885Z,99.60
2019-01-30T16:18:15.186Z,99.60
2019-01-30T16:20:43.599Z,99.70
2019-01-30T16:23:12.460Z,99.70
2019-01-30T16:25:40.759Z,99.90
2019-01-30T16:28:09.104Z,99.90
2019-01-30T16:30:37.448Z,99.90
2019-01-30T16:33:05.988Z,99.90
2019-01-30T16:35:34.644Z,99.90
2019-01-30T16:38:02.994Z,99.90
2019-01-30T16:40:32.412Z,99.90
2019-01-30T16:43:01.038Z,99.90
2019-01-30T16:45:30.955Z,99.90
2019-01-30T16:47:59.364Z,99.90
2019-01-30T16:50:27.765Z,99.90
2019-01-30T16:52:56.194Z,99.90
2019-01-30T16:55:24.930Z,99.90
2019-01-30T16:57:53.556Z,99.90
2019-01-30T17:00:33.021Z,99.90
2019-01-30T17:03:02.865Z,99.90
2019-01-30T17:05:31.692Z,99.90
2019-01-30T17:08:00.052Z,99.90
2019-01-30T17:10:29.017Z,99.90
2019-01-30T17:12:57.394Z,99.90
2019-01-30T17:15:34.867Z,99.90
2019-01-30T17:18:03.289Z,99.90
2019-01-30T17:20:34.101Z,99.90
2019-01-30T17:23:02.438Z,99.90
2019-01-30T17:25:30.798Z,99.90
2019-01-30T17:27:59.517Z,99.90
2019-01-30T17:30:37.292Z,99.90
2019-01-30T17:33:05.688Z,99.90
2019-01-30T17:35:34.115Z,99.90
2019-01-30T17:38:02.503Z,99.90
2019-01-30T17:40:30.888Z,99.90
2019-01-30T17:42:59.253Z,99.90
2019-01-30T17:45:27.582Z,99.90
2019-01-30T17:47:55.889Z,99.90
2019-01-30T17:50:29.139Z,99.90
2019-01-30T17:52:57.515Z,99.90
2019-01-30T17:55:26.390Z,99.90
2019-01-30T17:57:55.177Z,99.90
2019-01-30T18:00:53.768Z,99.90
2019-01-30T18:03:22.168Z,99.90
2019-01-30T18:05:50.532Z,99.90
2019-01-30T18:08:19.011Z,99.90
2019-01-30T18:10:47.660Z,99.90
2019-01-30T18:13:16.198Z,99.90
2019-01-30T18:15:44.616Z,99.90
2019-01-30T18:18:13.019Z,99.90
2019-01-30T18:20:41.427Z,99.90
2019-01-30T18:23:10.191Z,99.90
2019-01-30T18:25:38.564Z,99.90
2019-01-30T18:28:07.309Z,99.90
2019-01-30T18:30:35.998Z,99.90
2019-01-30T18:33:04.425Z,99.90
2019-01-30T18:35:32.804Z,99.90
2019-01-30T18:38:01.130Z,99.90
2019-01-30T18:40:31.101Z,99.90
2019-01-30T18:42:59.525Z,99.90
2019-01-30T18:45:28.592Z,99.90
2019-01-30T18:47:57.610Z,99.90
2019-01-30T18:50:28.465Z,99.90
2019-01-30T18:52:57.882Z,99.90
2019-01-30T18:55:26.267Z,99.90
2019-01-30T18:57:55.198Z,99.90
2019-01-30T19:00:26.449Z,99.90
2019-01-30T19:02:56.079Z,99.90
2019-01-30T19:05:24.471Z,99.90
2019-01-30T19:07:52.851Z,99.90
2019-01-30T19:10:21.288Z,99.90
2019-01-30T19:12:49.753Z,99.90
2019-01-30T19:15:24.022Z,99.90
2019-01-30T19:17:52.726Z,99.90
2019-01-30T19:20:23.619Z,99.90
2019-01-30T19:22:52.056Z,99.90
2019-01-30T19:25:20.434Z,99.90
2019-01-30T19:27:55.928Z,99.90
2019-01-30T19:30:28.288Z,99.90
2019-01-30T19:32:57.569Z,99.90
2019-01-30T19:35:27.582Z,99.90
2019-01-30T19:37:59.585Z,99.90
2019-01-30T19:40:28.015Z,99.90
2019-01-30T19:42:56.384Z,99.90
2019-01-30T19:45:26.626Z,99.90
2019-01-30T19:47:54.964Z,99.90
2019-01-30T19:50:25.559Z,99.90
2019-01-30T19:52:54.386Z,99.90
2019-01-30T19:55:22.836Z,99.90
2019-01-30T19:57:51.316Z,99.90
2019-01-30T20:00:22.399Z,99.90
2019-01-30T20:02:56.144Z,99.90
2019-01-30T20:05:24.540Z,99.90
2019-01-30T20:07:52.873Z,99.90
2019-01-30T20:10:24.550Z,99.90
2019-01-30T20:12:52.923Z,99.90
2019-01-30T20:15:21.249Z,99.90
2019-01-30T20:17:49.640Z,99.90
2019-01-30T20:20:20.960Z,99.90
2019-01-30T20:22:48.548Z,99.90
2019-01-30T20:25:22.571Z,99.90
2019-01-30T20:27:51.009Z,99.90
2019-01-30T20:30:21.268Z,99.90
2019-01-30T20:32:49.661Z,99.90
2019-01-30T20:35:18.437Z,99.90
2019-01-30T20:37:46.884Z,99.90
2019-01-30T20:40:17.375Z,99.90
2019-01-30T20:42:45.781Z,99.90
2019-01-30T20:45:15.309Z,99.90
2019-01-30T20:47:43.761Z,99.90
2019-01-30T20:50:14.764Z,99.90
2019-01-30T20:52:43.216Z,99.90
2019-01-30T20:55:13.661Z,99.90
2019-01-30T20:57:42.026Z,99.90
2019-01-30T21:00:21.806Z,99.90
2019-01-30T21:02:50.257Z,99.90
2019-01-30T21:05:18.666Z,99.90
2019-01-30T21:07:47.040Z,99.90
2019-01-30T21:10:18.423Z,99.90
2019-01-30T21:12:46.827Z,99.90
2019-01-30T21:15:16.334Z,99.90
2019-01-30T21:17:45.002Z,99.90
2019-01-30T21:20:15.642Z,99.90
2019-01-30T21:22:44.016Z,99.90
2019-01-30T21:25:20.061Z,99.90
2019-01-30T21:27:49.069Z,99.90
2019-01-30T21:30:32.343Z,99.90
2019-01-30T21:33:00.735Z,99.90
2019-01-30T21:35:29.035Z,99.90
2019-01-30T21:37:57.399Z,99.90
2019-01-30T21:40:25.741Z,99.90
2019-01-30T21:42:54.131Z,99.90
2019-01-30T21:45:26.134Z,99.90
2019-01-30T21:47:54.866Z,99.90
2019-01-30T21:50:23.174Z,99.90
2019-01-30T21:52:51.555Z,99.90
2019-01-30T21:55:22.817Z,99.90
2019-01-30T21:57:51.286Z,99.90
2019-01-30T22:00:24.611Z,99.90
2019-01-30T22:02:53.126Z,99.90
2019-01-30T22:05:21.497Z,99.90
2019-01-30T22:08:00.069Z,99.90
2019-01-30T22:10:27.996Z,99.90
2019-01-30T22:12:56.386Z,99.90
2019-01-30T22:15:24.781Z,99.90
2019-01-30T22:17:53.367Z,99.90
2019-01-30T22:20:26.870Z,99.90
2019-01-30T22:22:55.389Z,99.90
2019-01-30T22:25:25.098Z,99.90
2019-01-30T22:27:53.572Z,99.90
2019-01-30T22:30:26.439Z,99.90
2019-01-30T22:33:00.949Z,99.90
2019-01-30T22:35:29.317Z,99.90
2019-01-30T22:37:57.737Z,99.90
2019-01-30T22:40:26.072Z,99.90
2019-01-30T22:42:54.492Z,99.90
2019-01-30T22:45:22.933Z,99.90
2019-01-30T22:47:51.595Z,99.90
2019-01-30T22:50:20.538Z,99.90
2019-01-30T22:52:48.909Z,99.90
2019-01-30T22:55:19.436Z,99.90
2019-01-30T22:57:50.788Z,99.90
2019-01-30T23:00:50.755Z,99.90
2019-01-30T23:03:24.313Z,99.90
2019-01-30T23:05:58.966Z,99.90
2019-01-30T23:08:28.477Z,99.90
2019-01-30T23:11:12.249Z,99.90
2019-01-30T23:13:43.888Z,99.90
2019-01-30T23:16:32.033Z,99.90
2019-01-30T23:19:06.254Z,99.90
2019-01-30T23:21:43.926Z,99.90
2019-01-30T23:24:18.186Z,99.90
2019-01-30T23:26:49.852Z,99.90
2019-01-30T23:29:32.845Z,99.90
2019-01-30T23:32:04.525Z,99.90
2019-01-30T23:34:41.831Z,99.90
2019-01-30T23:37:16.237Z,99.90
2019-01-30T23:40:03.296Z,99.90
2019-01-30T23:42:37.787Z,99.90
2019-01-30T23:45:33.576Z,99.90
2019-01-30T23:48:19.768Z,99.90
2019-01-30T23:50:51.326Z,99.90
2019-01-30T23:53:25.942Z,99.90
2019-01-30T23:56:06.503Z,99.90
2019-01-30T23:58:57.925Z,99.90
